Time;durP1;ratioP1;P1;durP2;ratioP2;P2;SDS_P1;SDS_P2;PMS_P1;PMS_P2;Temp;Humidity;BMP_temperature;BMP_pressure;BME280_temperature;BME280_humidity;BME280_pressure;Samples;Min_cycle;Max_cycle;Signal;HPM_P1;HPM_P2
2022/05/19 00:01:04;;;;;;;3.50;2.40;;;;;;;18.04;67.00;97017.06;5030610;28;20125;-66
2022/05/19 00:03:33;;;;;;;5.75;2.40;;;;;;;17.87;67.67;97021.53;5032751;28;20401;-67
2022/05/19 00:05:58;;;;;;;4.30;2.45;;;;;;;17.81;68.50;97020.38;5012471;28;20036;-66
2022/05/19 00:08:24;;;;;;;9.43;2.47;;;;;;;17.72;68.49;97017.25;5032065;28;20029;-67
2022/05/19 00:10:51;;;;;;;4.90;2.55;;;;;;;17.80;68.70;97007.69;5032043;28;20525;-68
2022/05/19 00:13:17;;;;;;;4.32;2.45;;;;;;;17.63;69.17;97009.41;5029567;28;20418;-68
2022/05/19 00:15:43;;;;;;;5.35;2.83;;;;;;;17.75;68.98;97005.34;5030878;28;20032;-66
2022/05/19 00:18:08;;;;;;;3.63;2.40;;;;;;;17.40;70.86;97012.69;5030268;28;20036;-67
2022/05/19 00:20:34;;;;;;;4.03;2.60;;;;;;;17.36;70.98;97009.94;5038878;28;20029;-63
2022/05/19 00:22:59;;;;;;;4.43;2.85;;;;;;;17.33;71.56;97016.28;5048653;28;20037;-67
2022/05/19 00:25:25;;;;;;;4.13;2.63;;;;;;;17.38;71.62;97012.31;5034475;28;20036;-67
2022/05/19 00:27:50;;;;;;;5.18;2.10;;;;;;;17.45;71.79;97017.00;5031053;28;20037;-66
2022/05/19 00:30:16;;;;;;;7.18;2.50;;;;;;;17.49;72.64;97013.03;5028671;28;20036;-65
2022/05/19 00:32:41;;;;;;;7.50;2.95;;;;;;;17.47;72.72;97015.44;5030886;28;20094;-66
2022/05/19 00:35:07;;;;;;;7.25;2.65;;;;;;;17.45;71.95;97020.59;5030510;28;20061;-65
2022/05/19 00:37:32;;;;;;;4.47;2.67;;;;;;;17.31;74.00;97015.13;5029467;28;20030;-66
2022/05/19 00:39:58;;;;;;;3.95;2.80;;;;;;;17.12;76.15;97025.47;5031128;28;20033;-67
2022/05/19 00:45:08;;;;;;;4.78;3.10;;;;;;;16.78;79.14;97028.75;5030291;28;20075;-67
2022/05/19 00:47:56;;;;;;;5.82;3.08;;;;;;;16.82;79.57;97028.75;5030225;28;20029;-67
2022/05/19 00:50:31;;;;;;;6.20;2.60;;;;;;;16.34;82.26;97026.47;5029298;28;20137;-65
2022/05/19 00:53:12;;;;;;;5.05;2.90;;;;;;;16.21;82.97;97028.84;5031154;28;20112;-65
2022/05/19 00:55:42;;;;;;;5.68;3.13;;;;;;;16.03;85.11;97028.84;5033868;28;20080;-65
2022/05/19 00:58:14;;;;;;;8.27;2.83;;;;;;;15.99;86.07;97028.03;5036405;28;20025;-65
2022/05/19 01:00:41;;;;;;;6.68;3.40;;;;;;;15.91;85.72;97027.25;5030375;28;20429;-65
2022/05/19 01:03:07;;;;;;;8.63;3.17;;;;;;;15.93;87.06;97035.16;5048505;28;20060;-65
2022/05/19 01:05:46;;;;;;;4.53;2.95;;;;;;;15.88;87.45;97030.81;5029893;28;20052;-64
2022/05/19 01:08:18;;;;;;;7.78;2.90;;;;;;;15.89;88.14;97035.16;5038176;28;20095;-65
2022/05/19 01:10:45;;;;;;;4.05;3.00;;;;;;;15.80;88.63;97037.53;5032057;28;20064;-64
2022/05/19 01:13:12;;;;;;;6.45;2.97;;;;;;;15.83;89.20;97037.53;5032785;28;20055;-66
2022/05/19 01:15:40;;;;;;;8.60;2.80;;;;;;;15.78;88.61;97031.59;5033409;28;20042;-66
2022/05/19 01:18:07;;;;;;;8.55;3.15;;;;;;;15.73;89.50;97031.97;5031838;28;20041;-66
2022/05/19 01:20:34;;;;;;;7.70;3.28;;;;;;;15.63;90.06;97039.84;5033665;28;20083;-66
2022/05/19 01:23:23;;;;;;;6.53;3.30;;;;;;;15.64;91.21;97046.91;5033122;28;20108;-66
2022/05/19 01:26:13;;;;;;;5.75;3.20;;;;;;;15.52;91.41;97038.22;5033772;28;20033;-68
2022/05/19 01:28:38;;;;;;;;;;;;;;;15.34;92.60;97041.75;5033969;28;20037;-66
2022/05/19 01:31:04;;;;;;;7.07;3.15;;;;;;;15.19;93.35;97042.84;5034212;28;19963;-66
2022/05/19 01:33:29;;;;;;;4.25;3.20;;;;;;;15.24;94.75;97037.75;5034076;28;20494;-65
2022/05/19 01:35:55;;;;;;;4.30;3.30;;;;;;;15.33;94.08;97042.13;5033295;28;20025;-65
2022/05/19 01:38:26;;;;;;;6.00;3.55;;;;;;;15.03;96.86;97043.97;5033683;28;20482;-65
2022/05/19 01:41:10;;;;;;;6.10;3.90;;;;;;;14.93;98.18;97041.16;5031311;28;20079;-65
2022/05/19 01:43:59;;;;;;;8.50;3.70;;;;;;;14.09;100.00;97041.81;5033602;28;20025;-65
2022/05/19 01:46:36;;;;;;;5.80;3.67;;;;;;;14.11;100.00;97045.75;5033072;28;20033;-66
2022/05/19 01:49:22;;;;;;;6.82;3.67;;;;;;;14.33;100.00;97045.91;5034086;28;20033;-66
2022/05/19 01:52:01;;;;;;;6.68;3.95;;;;;;;14.59;100.00;97052.44;5033614;28;20112;-66
2022/05/19 01:54:57;;;;;;;6.72;4.07;;;;;;;14.67;100.00;97043.00;5033340;28;20057;-67
2022/05/19 01:57:28;;;;;;;6.88;3.53;;;;;;;14.66;100.00;97044.19;5032573;28;20030;-67
2022/05/19 02:00:20;;;;;;;10.75;4.32;;;;;;;14.28;100.00;97041.56;5033504;28;20040;-66
2022/05/19 02:02:54;;;;;;;5.95;3.60;;;;;;;14.14;100.00;97044.22;5032304;28;20033;-66
2022/05/19 02:05:20;;;;;;;7.05;3.80;;;;;;;14.19;100.00;97048.56;5033027;28;20029;-66
2022/05/19 02:07:50;;;;;;;10.77;4.13;;;;;;;14.04;100.00;97048.44;5033488;28;20026;-66
2022/05/19 02:10:29;;;;;;;9.70;3.92;;;;;;;14.06;100.00;97048.88;5032051;28;20478;-66
2022/05/19 02:12:57;;;;;;;7.60;4.38;;;;;;;14.21;100.00;97046.25;5032363;28;20033;-67
2022/05/19 02:15:26;;;;;;;6.70;3.90;;;;;;;14.30;100.00;97049.44;5032010;28;20512;-68
2022/05/19 02:17:52;;;;;;;6.28;3.60;;;;;;;14.42;100.00;97049.16;5031991;28;20556;-64
2022/05/19 02:20:23;;;;;;;8.15;3.50;;;;;;;14.45;100.00;97050.34;5032969;28;20386;-65
2022/05/19 02:22:48;;;;;;;5.78;3.65;;;;;;;14.42;100.00;97064.88;5032921;28;20490;-64
2022/05/19 02:25:23;;;;;;;7.53;3.85;;;;;;;14.30;100.00;97060.47;5032569;28;20049;-67
2022/05/19 02:28:05;;;;;;;10.32;4.28;;;;;;;14.04;100.00;97067.72;5032172;28;20033;-63
2022/05/19 02:30:32;;;;;;;10.70;4.28;;;;;;;13.86;100.00;97061.28;5037506;28;20091;-63
2022/05/19 02:32:58;;;;;;;6.40;4.00;;;;;;;13.80;100.00;97065.56;5037283;28;20048;-63
2022/05/19 02:35:25;;;;;;;9.75;3.72;;;;;;;13.91;100.00;97064.47;5030933;28;20025;-64
2022/05/19 02:37:51;;;;;;;5.82;4.00;;;;;;;14.05;100.00;97061.06;5032132;28;20138;-66
2022/05/19 02:40:20;;;;;;;6.55;3.90;;;;;;;14.03;100.00;97066.16;5032486;28;20026;-64
2022/05/19 02:42:46;;;;;;;4.97;3.60;;;;;;;14.18;100.00;97063.53;5031730;28;20041;-64
2022/05/19 02:45:14;;;;;;;7.88;4.10;;;;;;;14.07;100.00;97058.72;5031579;28;20107;-64
2022/05/19 02:47:40;;;;;;;8.50;4.10;;;;;;;14.02;100.00;97061.81;5030538;28;20071;-65
2022/05/19 02:50:08;;;;;;;7.55;3.90;;;;;;;13.92;100.00;97068.03;5032388;28;20029;-64
2022/05/19 02:52:34;;;;;;;6.93;4.43;;;;;;;13.92;100.00;97062.53;5031322;28;20443;-63
2022/05/19 02:55:00;;;;;;;7.50;4.53;;;;;;;13.89;100.00;97066.03;5031273;28;20097;-63
2022/05/19 02:57:26;;;;;;;7.50;4.43;;;;;;;13.89;100.00;97074.28;5031621;28;20482;-64
2022/05/19 02:59:51;;;;;;;6.05;4.10;;;;;;;13.85;100.00;97068.75;5032268;28;20482;-63
2022/05/19 03:02:17;;;;;;;7.43;3.90;;;;;;;13.79;100.00;97075.75;5029967;28;20490;-64
2022/05/19 03:04:43;;;;;;;6.38;3.90;;;;;;;13.73;100.00;97078.06;5038755;28;20514;-64
2022/05/19 03:07:08;;;;;;;11.73;4.30;;;;;;;13.88;100.00;97081.75;5037705;28;20025;-64
2022/05/19 03:09:34;;;;;;;8.00;4.30;;;;;;;13.82;100.00;97083.25;5033679;28;20235;-63
2022/05/19 03:12:00;;;;;;;5.22;4.22;;;;;;;13.83;100.00;97089.56;5030837;28;20029;-64
2022/05/19 03:14:25;;;;;;;11.02;5.03;;;;;;;13.71;100.00;97087.88;5031160;28;20029;-64
2022/05/19 03:16:50;;;;;;;4.18;3.65;;;;;;;13.69;100.00;97085.50;5030049;28;20049;-64
2022/05/19 03:19:16;;;;;;;6.47;4.25;;;;;;;13.71;100.00;97085.13;5030400;28;20030;-64
2022/05/19 03:21:42;;;;;;;10.48;4.25;;;;;;;13.61;100.00;97086.59;5031343;28;20034;-63
2022/05/19 03:24:09;;;;;;;9.00;4.50;;;;;;;13.59;100.00;97083.41;5031499;28;20109;-64
2022/05/19 03:26:35;;;;;;;8.18;3.95;;;;;;;13.71;100.00;97088.66;5028532;28;20030;-65
2022/05/19 03:29:01;;;;;;;13.40;4.53;;;;;;;13.75;100.00;97088.69;5030410;28;20021;-65
2022/05/19 03:31:26;;;;;;;7.50;4.13;;;;;;;13.77;100.00;97089.91;5030072;28;20187;-66
2022/05/19 03:33:52;;;;;;;8.65;3.70;;;;;;;13.84;100.00;97093.91;5031243;28;20029;-65
2022/05/19 03:36:18;;;;;;;10.60;4.50;;;;;;;13.77;100.00;97089.91;5031589;28;20025;-65
2022/05/19 03:38:43;;;;;;;6.90;3.67;;;;;;;13.64;100.00;97080.34;5030882;28;20517;-64
2022/05/19 03:41:08;;;;;;;13.90;4.78;;;;;;;13.48;100.00;97088.03;5031008;28;20033;-66
2022/05/19 03:43:34;;;;;;;10.43;4.78;;;;;;;13.36;100.00;97087.13;5030638;28;20091;-64
2022/05/19 03:46:02;;;;;;;6.43;4.22;;;;;;;13.42;100.00;97089.53;5031487;28;20383;-66
2022/05/19 03:48:36;;;;;;;10.23;5.35;;;;;;;13.36;100.00;97097.31;5032694;28;20101;-62
2022/05/19 03:51:04;;;;;;;6.43;4.28;;;;;;;13.39;100.00;97105.59;5043449;28;20041;-60
2022/05/19 03:53:30;;;;;;;8.90;4.80;;;;;;;13.16;100.00;97096.66;5046993;28;20052;-64
2022/05/19 03:55:56;;;;;;;7.10;4.78;;;;;;;13.16;100.00;97097.47;5033613;28;20025;-65
2022/05/19 03:58:21;;;;;;;9.00;4.75;;;;;;;13.06;100.00;97102.81;5032336;28;20029;-64
2022/05/19 04:00:47;;;;;;;8.13;5.22;;;;;;;13.15;100.00;97109.63;5037690;28;20048;-66
2022/05/19 04:03:12;;;;;;;8.20;5.30;;;;;;;13.10;100.00;97111.91;5031495;28;20033;-66
2022/05/19 04:05:38;;;;;;;8.75;4.80;;;;;;;13.18;100.00;97108.88;5031080;28;20075;-65
2022/05/19 04:08:04;;;;;;;9.77;5.13;;;;;;;13.26;100.00;97112.50;5030635;28;20091;-65
2022/05/19 04:10:29;;;;;;;6.57;4.63;;;;;;;13.41;100.00;97115.44;5031652;28;20025;-64
2022/05/19 04:12:57;;;;;;;7.43;4.72;;;;;;;13.49;100.00;97115.16;5031823;28;20037;-64
2022/05/19 04:15:23;;;;;;;7.90;4.53;;;;;;;13.76;100.00;97110.34;5031018;28;20050;-64
2022/05/19 04:17:48;;;;;;;10.55;5.18;;;;;;;13.89;100.00;97119.13;5031837;28;20086;-63
2022/05/19 04:20:15;;;;;;;6.40;4.68;;;;;;;14.07;100.00;97119.28;5033216;28;20059;-63
2022/05/19 04:22:41;;;;;;;7.88;4.55;;;;;;;14.18;100.00;97115.84;5046764;28;20025;-64
2022/05/19 04:25:08;;;;;;;16.75;5.00;;;;;;;14.19;100.00;97121.00;5039843;28;20068;-66
2022/05/19 04:27:34;;;;;;;8.43;3.80;;;;;;;14.33;100.00;97123.88;5031383;28;20025;-65
2022/05/19 04:30:00;;;;;;;9.10;4.65;;;;;;;14.39;100.00;97129.81;5031948;28;20034;-65
2022/05/19 04:32:26;;;;;;;8.70;4.50;;;;;;;14.67;100.00;97136.75;5031800;28;20034;-65
2022/05/19 04:34:51;;;;;;;15.65;5.05;;;;;;;14.76;100.00;97131.69;5031179;28;20401;-65
2022/05/19 04:37:17;;;;;;;8.85;4.78;;;;;;;14.48;100.00;97137.75;5031178;28;20882;-67
2022/05/19 04:39:42;;;;;;;12.48;5.00;;;;;;;14.76;100.00;97133.66;5031489;28;20035;-64
2022/05/19 04:42:11;;;;;;;7.68;4.50;;;;;;;14.97;100.00;97133.00;5032279;28;20037;-67
2022/05/19 04:44:37;;;;;;;6.97;3.88;;;;;;;15.12;100.00;97134.66;5033665;28;20029;-66
2022/05/19 04:47:03;;;;;;;11.38;4.32;;;;;;;15.48;100.00;97141.16;5034926;28;20069;-64
2022/05/19 04:49:28;;;;;;;11.07;4.70;;;;;;;15.92;100.00;97136.59;5035428;28;20083;-65
2022/05/19 04:51:54;;;;;;;6.20;3.90;;;;;;;16.15;99.86;97141.75;5034704;28;20025;-66
2022/05/19 04:54:19;;;;;;;7.80;3.60;;;;;;;16.50;98.46;97147.69;5035234;28;20029;-62
2022/05/19 04:56:45;;;;;;;6.03;4.22;;;;;;;16.91;95.37;97147.31;5034896;28;20049;-65
2022/05/19 04:59:14;;;;;;;7.80;3.85;;;;;;;17.55;90.67;97149.09;5035203;28;20485;-65
2022/05/19 05:01:48;;;;;;;7.18;4.22;;;;;;;18.53;84.26;97153.69;5034375;28;20398;-65
2022/05/19 05:04:15;;;;;;;5.93;3.55;;;;;;;19.49;78.76;97151.19;5034967;28;20034;-67
2022/05/19 05:06:41;;;;;;;11.55;3.33;;;;;;;20.11;74.27;97154.00;5034720;28;20370;-68
2022/05/19 05:09:07;;;;;;;8.05;3.60;;;;;;;20.86;69.44;97159.66;5033794;28;20029;-64
2022/05/19 05:11:33;;;;;;;20.55;4.07;;;;;;;21.32;68.50;97167.16;5034753;28;20501;-66
2022/05/19 05:13:58;;;;;;;6.55;3.15;;;;;;;22.70;61.87;97171.44;5034741;28;20064;-64
2022/05/19 05:16:24;;;;;;;6.63;3.28;;;;;;;23.45;57.56;97183.50;5034297;28;20029;-64
2022/05/19 05:18:49;;;;;;;4.22;3.08;;;;;;;24.41;53.88;97172.75;5034645;28;20029;-63
2022/05/19 05:21:15;;;;;;;7.22;3.88;;;;;;;25.22;50.67;97175.34;5033327;28;20490;-67
2022/05/19 05:23:41;;;;;;;7.88;3.42;;;;;;;25.72;48.54;97170.81;5031532;28;20033;-64
2022/05/19 05:26:07;;;;;;;7.93;3.60;;;;;;;24.52;52.22;97178.78;5033002;28;20080;-64
2022/05/19 05:28:33;;;;;;;5.82;3.50;;;;;;;23.22;53.98;97187.28;5034299;28;20056;-63
2022/05/19 05:30:59;;;;;;;6.35;3.33;;;;;;;24.30;52.24;97181.47;5040931;28;20050;-66
2022/05/19 05:33:25;;;;;;;5.38;3.15;;;;;;;24.98;49.95;97181.34;5034217;28;20037;-66
2022/05/19 05:35:51;;;;;;;9.55;2.97;;;;;;;24.24;52.81;97183.28;5033490;28;20100;-66
2022/05/19 05:38:17;;;;;;;7.35;3.70;;;;;;;24.99;49.95;97196.91;5032193;28;20075;-65
2022/05/19 05:40:43;;;;;;;11.07;4.95;;;;;;;24.13;51.05;97189.19;5032532;28;20025;-65
2022/05/19 05:43:17;;;;;;;7.03;3.95;;;;;;;24.48;50.83;97196.94;5032639;28;20057;-66
2022/05/19 05:45:44;;;;;;;9.95;3.80;;;;;;;22.27;58.36;97195.56;5032172;28;20427;-68
2022/05/19 05:48:10;;;;;;;6.25;4.03;;;;;;;23.27;55.94;97192.34;5032686;28;20033;-66
2022/05/19 05:50:36;;;;;;;7.38;3.90;;;;;;;24.70;51.69;97194.28;5034011;28;20111;-66
2022/05/19 05:53:03;;;;;;;6.25;3.30;;;;;;;26.82;45.09;97200.72;5032932;28;20037;-68
2022/05/19 05:55:29;;;;;;;6.38;3.17;;;;;;;28.06;41.74;97197.88;5031880;28;20022;-66
2022/05/19 05:57:54;;;;;;;12.10;3.60;;;;;;;27.70;41.89;97202.28;5033151;28;20040;-66
2022/05/19 06:00:20;;;;;;;8.02;3.45;;;;;;;28.50;39.65;97203.06;5032142;28;20041;-64
2022/05/19 06:02:46;;;;;;;8.10;3.22;;;;;;;28.72;39.57;97212.09;5033385;28;20057;-65
2022/05/19 06:05:12;;;;;;;5.25;3.33;;;;;;;29.55;37.07;97210.84;5029868;28;20123;-65
2022/05/19 06:07:39;;;;;;;7.07;3.30;;;;;;;28.98;39.07;97212.41;5031396;28;20095;-65
2022/05/19 06:10:05;;;;;;;5.32;2.58;;;;;;;28.91;39.18;97212.00;5032216;28;20042;-65
2022/05/19 06:12:31;;;;;;;7.82;3.30;;;;;;;29.78;37.08;97214.09;5031629;28;20482;-65
2022/05/19 06:14:56;;;;;;;8.10;2.97;;;;;;;30.28;36.21;97217.06;5033269;28;20037;-64
2022/05/19 06:17:23;;;;;;;4.75;2.45;;;;;;;30.14;36.28;97218.63;5046429;28;20132;-66
2022/05/19 06:19:50;;;;;;;7.53;2.50;;;;;;;30.14;35.75;97220.66;5033365;28;20029;-64
2022/05/19 06:22:16;;;;;;;5.68;2.75;;;;;;;29.94;36.80;97213.63;5031931;28;20060;-65
2022/05/19 06:24:41;;;;;;;8.50;3.22;;;;;;;29.59;36.51;97217.06;5032690;28;20017;-66
2022/05/19 06:27:07;;;;;;;8.93;3.17;;;;;;;29.55;35.95;97220.06;5032281;28;20044;-65
2022/05/19 06:29:32;;;;;;;6.72;2.70;;;;;;;30.33;35.64;97212.78;5029584;28;20029;-65
2022/05/19 06:31:58;;;;;;;11.02;2.60;;;;;;;30.41;34.69;97219.63;5032515;28;20563;-67
2022/05/19 06:34:24;;;;;;;12.02;3.67;;;;;;;28.89;37.44;97220.16;5033310;28;20033;-65
2022/05/19 06:36:49;;;;;;;4.40;2.40;;;;;;;28.70;37.90;97225.09;5032265;28;20057;-65
2022/05/19 06:39:16;;;;;;;6.00;2.83;;;;;;;29.43;36.26;97220.31;5032841;28;20056;-65
2022/05/19 06:42:03;;;;;;;5.45;3.08;;;;;;;29.29;36.53;97222.59;5031218;28;20056;-64
2022/05/19 06:44:32;;;;;;;6.88;3.00;;;;;;;29.69;36.38;97224.19;5032221;28;20037;-65
2022/05/19 06:46:58;;;;;;;7.38;2.90;;;;;;;30.39;35.08;97225.75;5030195;28;20554;-64
2022/05/19 06:49:23;;;;;;;6.53;2.63;;;;;;;30.73;34.51;97228.38;5031838;28;20112;-65
2022/05/19 06:51:48;;;;;;;5.65;2.65;;;;;;;30.77;33.43;97226.88;5031967;28;20117;-65
2022/05/19 06:54:14;;;;;;;7.00;3.17;;;;;;;27.84;39.21;97230.56;5032561;28;20068;-65
2022/05/19 06:56:39;;;;;;;8.32;3.08;;;;;;;29.51;36.97;97229.97;5030196;28;20468;-66
2022/05/19 06:59:05;;;;;;;6.38;2.50;;;;;;;29.86;36.11;97235.84;5033842;28;20037;-66
2022/05/19 07:01:31;;;;;;;5.68;2.75;;;;;;;30.90;34.36;97237.91;5029919;28;20033;-65
2022/05/19 07:03:57;;;;;;;5.15;2.72;;;;;;;29.58;36.58;97242.94;5023144;28;20056;-64
2022/05/19 07:06:23;;;;;;;4.95;2.42;;;;;;;30.82;34.78;97240.34;5015231;28;20730;-65
2022/05/19 07:08:49;;;;;;;7.85;2.95;;;;;;;31.30;33.94;97247.75;5020297;28;20045;-64
2022/05/19 07:11:26;;;;;;;4.50;2.83;;;;;;;30.18;36.64;97243.84;5015347;28;20052;-65
2022/05/19 07:13:54;;;;;;;5.13;3.40;;;;;;;31.19;34.55;97251.19;5011134;28;20433;-65
2022/05/19 07:16:20;;;;;;;5.45;2.90;;;;;;;30.18;36.01;97246.66;4997646;28;20049;-66
2022/05/19 07:18:45;;;;;;;6.38;2.50;;;;;;;29.49;37.87;97243.78;5019871;28;20080;-66
2022/05/19 07:21:12;;;;;;;7.65;4.57;;;;;;;29.77;37.21;97246.44;4996425;28;20084;-66
2022/05/19 07:23:38;;;;;;;7.07;3.00;;;;;;;30.58;35.47;97246.13;5001264;28;20442;-66
2022/05/19 07:26:03;;;;;;;4.18;2.72;;;;;;;30.33;35.88;97247.47;4998355;28;20073;-64
2022/05/19 07:28:29;;;;;;;5.22;3.00;;;;;;;30.26;36.23;97254.28;5012059;28;20431;-65
2022/05/19 07:30:55;;;;;;;4.25;2.70;;;;;;;30.50;36.13;97259.09;5021187;28;20037;-65
2022/05/19 07:33:21;;;;;;;3.63;2.30;;;;;;;31.00;35.03;97250.66;5016673;28;20049;-65
2022/05/19 07:35:46;;;;;;;3.40;2.35;;;;;;;31.36;34.18;97262.72;5020663;28;20141;-65
2022/05/19 07:38:15;;;;;;;5.85;2.78;;;;;;;31.39;33.84;97263.81;5015205;28;20132;-65
2022/05/19 07:40:41;;;;;;;6.63;2.90;;;;;;;29.15;37.77;97262.78;5008975;28;20549;-68
2022/05/19 07:45:51;;;;;;;6.47;2.85;;;;;;;30.00;37.40;97259.72;5002159;28;20526;-66
2022/05/19 07:48:16;;;;;;;8.30;2.97;;;;;;;29.52;38.48;97260.53;5002964;28;20061;-66
2022/05/19 07:50:42;;;;;;;6.03;3.05;;;;;;;30.02;37.25;97262.84;5013640;28;20505;-66
2022/05/19 07:53:09;;;;;;;6.60;2.90;;;;;;;29.25;38.79;97257.91;5008873;28;20038;-65
2022/05/19 07:55:34;;;;;;;9.82;4.93;;;;;;;29.70;38.19;97256.03;5013282;28;20132;-65
2022/05/19 07:58:00;;;;;;;7.13;3.22;;;;;;;29.89;38.04;97256.66;5001519;28;20124;-66
2022/05/19 08:00:25;;;;;;;7.43;3.58;;;;;;;30.24;37.68;97250.41;5000444;28;20106;-66
2022/05/19 08:02:51;;;;;;;13.23;3.83;;;;;;;29.80;37.51;97265.22;5018522;28;20067;-66
2022/05/19 08:05:16;;;;;;;7.82;3.25;;;;;;;28.06;41.59;97257.00;4996201;28;21935;-67
2022/05/19 08:07:41;;;;;;;6.05;2.58;;;;;;;29.23;39.92;97266.06;5019939;28;20042;-67
2022/05/19 08:10:26;;;;;;;6.32;3.00;;;;;;;29.74;37.73;97248.94;5015976;28;20083;-67
2022/05/19 08:15:43;;;;;;;8.07;3.00;;;;;;;25.19;50.62;97249.91;5024252;28;20048;-65
2022/05/19 08:18:13;;;;;;;8.30;3.05;;;;;;;24.80;53.29;97247.16;5027951;28;20061;-66
2022/05/19 08:20:43;;;;;;;5.75;2.78;;;;;;;26.50;48.96;97254.09;5022847;28;20056;-66
2022/05/19 08:23:18;;;;;;;3.90;2.42;;;;;;;27.74;45.02;97259.94;5015486;28;20037;-66
2022/05/19 08:25:46;;;;;;;6.18;3.08;;;;;;;27.88;44.81;97240.88;5020855;28;20456;-66
2022/05/19 08:28:14;;;;;;;4.93;3.10;;;;;;;28.31;43.91;97253.06;5018219;28;20037;-66
2022/05/19 08:30:42;;;;;;;5.30;2.85;;;;;;;28.40;43.20;97253.81;5019423;28;20117;-66
2022/05/19 08:33:07;;;;;;;8.18;3.17;;;;;;;29.02;41.44;97253.75;5015068;28;20579;-66
2022/05/19 08:35:33;;;;;;;10.70;2.70;;;;;;;29.41;40.76;97254.66;5018556;28;20134;-65
2022/05/19 08:37:58;;;;;;;6.05;2.85;;;;;;;28.58;42.01;97257.88;5019915;28;20037;-66
2022/05/19 08:40:24;;;;;;;6.32;3.20;;;;;;;27.75;45.64;97258.72;5014420;28;20661;-65
2022/05/19 08:42:58;;;;;;;5.78;3.10;;;;;;;28.88;43.48;97249.59;5019824;28;20114;-65
2022/05/19 08:45:34;;;;;;;7.50;3.38;;;;;;;28.64;43.32;97247.50;5014177;28;20745;-66
2022/05/19 08:48:04;;;;;;;9.40;2.72;;;;;;;28.94;41.88;97245.66;5020032;28;20135;-66
2022/05/19 08:50:36;;;;;;;6.57;3.17;;;;;;;28.27;44.16;97246.78;5019622;28;20127;-65
2022/05/19 08:53:02;;;;;;;9.00;3.28;;;;;;;28.48;43.84;97248.63;5018515;28;20375;-65
2022/05/19 08:55:28;;;;;;;6.82;3.40;;;;;;;28.44;43.53;97245.19;5016706;28;20052;-66
2022/05/19 08:57:59;;;;;;;4.53;3.13;;;;;;;28.87;43.30;97239.59;5019796;28;20048;-66
2022/05/19 09:00:46;;;;;;;7.47;2.95;;;;;;;28.23;45.50;97246.94;5015004;28;20602;-66
2022/05/19 09:03:23;;;;;;;4.32;2.78;;;;;;;28.75;43.56;97242.13;5013974;28;20513;-64
2022/05/19 09:06:10;;;;;;;6.03;3.33;;;;;;;28.68;43.42;97242.47;5018840;28;20041;-64
2022/05/19 09:09:13;;;;;;;6.63;2.97;;;;;;;28.74;42.59;97240.56;5019201;28;20509;-65
2022/05/19 09:11:53;;;;;;;4.22;2.83;;;;;;;28.20;43.28;97245.88;5019804;28;20045;-65
2022/05/19 09:14:28;;;;;;;6.55;3.13;;;;;;;29.04;42.18;97245.59;5015315;28;20044;-64
2022/05/19 09:17:06;;;;;;;5.40;2.72;;;;;;;28.48;43.80;97253.47;5019763;28;20073;-64
2022/05/19 09:19:49;;;;;;;7.35;3.05;;;;;;;28.98;42.55;97239.84;5020054;28;20422;-65
2022/05/19 09:22:21;;;;;;;5.93;2.85;;;;;;;29.30;41.38;97237.50;5015030;28;20414;-65
2022/05/19 09:24:49;;;;;;;6.03;3.28;;;;;;;29.86;40.52;97240.72;5019835;28;20098;-66
2022/05/19 09:27:16;;;;;;;5.15;2.88;;;;;;;29.92;40.63;97238.75;5012471;28;20056;-65
2022/05/19 09:29:49;;;;;;;9.85;3.55;;;;;;;29.26;41.35;97232.03;5020354;28;20458;-65
2022/05/19 09:32:14;;;;;;;15.65;3.97;;;;;;;29.62;41.26;97238.69;5017003;28;20038;-65
2022/05/19 09:34:44;;;;;;;9.13;3.70;;;;;;;30.13;41.04;97231.19;5024111;28;20376;-64
2022/05/19 09:37:16;;;;;;;10.52;4.88;;;;;;;29.98;40.18;97239.66;5017525;28;20315;-64
2022/05/19 09:40:07;;;;;;;6.30;3.47;;;;;;;29.79;41.04;97233.38;5023851;28;20034;-65
2022/05/19 09:43:03;;;;;;;7.72;3.67;;;;;;;29.28;42.45;97228.72;5019578;28;20037;-65
2022/05/19 09:45:35;;;;;;;6.03;3.55;;;;;;;29.27;43.11;97230.00;5020689;28;20127;-65
2022/05/19 09:48:04;;;;;;;6.15;3.38;;;;;;;29.01;43.42;97224.78;5023599;28;20038;-66
2022/05/19 09:50:37;;;;;;;6.88;3.60;;;;;;;28.81;43.41;97227.38;5019792;28;20044;-65
2022/05/19 09:53:14;;;;;;;5.57;3.10;;;;;;;29.19;43.79;97218.28;5025364;28;20095;-65
2022/05/19 09:55:40;;;;;;;6.40;3.25;;;;;;;29.71;42.75;97226.50;5022598;28;20042;-65
2022/05/19 09:58:09;;;;;;;10.70;3.55;;;;;;;29.76;42.23;97228.69;5016973;28;20052;-65
2022/05/19 10:00:46;;;;;;;8.07;4.10;;;;;;;29.69;42.68;97220.56;5022496;28;20136;-65
2022/05/19 10:03:21;;;;;;;10.75;3.70;;;;;;;29.50;43.54;97222.78;5017459;28;20045;-65
2022/05/19 10:05:49;;;;;;;6.38;3.63;;;;;;;29.32;43.48;97220.88;5021784;28;20049;-65
2022/05/19 10:08:15;;;;;;;7.88;4.07;;;;;;;28.32;47.11;97218.00;5017198;28;20453;-65
2022/05/19 10:10:48;;;;;;;8.35;4.25;;;;;;;28.57;46.56;97214.03;5022175;28;20045;-65
2022/05/19 10:13:16;;;;;;;10.27;4.30;;;;;;;29.12;45.18;97210.16;5017013;28;20034;-65
2022/05/19 10:16:07;;;;;;;5.53;3.47;;;;;;;29.03;45.98;97207.38;5021107;28;20506;-65
2022/05/19 10:18:38;;;;;;;7.68;4.00;;;;;;;29.31;44.53;97197.50;5021610;28;20045;-65
2022/05/19 10:21:40;;;;;;;8.18;3.40;;;;;;;29.51;44.64;97196.91;5019531;28;20107;-64
2022/05/19 10:24:30;;;;;;;3.97;2.83;;;;;;;29.78;43.70;97200.00;5016761;28;20068;-64
2022/05/19 10:33:20;;;;;;;15.13;3.55;;;;;;;30.06;43.49;97195.63;5021996;28;20045;-66
2022/05/19 10:36:08;;;;;;;8.82;3.65;;;;;;;29.82;43.11;97180.81;5031449;28;20048;-66
2022/05/19 10:38:54;;;;;;;4.10;2.80;;;;;;;30.07;43.57;97182.28;5027946;28;20147;-65
2022/05/19 10:41:42;;;;;;;9.43;4.30;;;;;;;30.06;44.59;97186.41;5016607;28;20077;-66
2022/05/19 10:44:41;;;;;;;7.10;3.97;;;;;;;29.88;45.20;97173.25;5005120;28;20769;-66
2022/05/19 10:47:07;;;;;;;;;;;;;;;29.76;45.34;97175.06;5016995;28;20282;-65
2022/05/19 10:49:57;;;;;;;9.50;3.17;;;;;;;29.70;45.06;97172.13;5021316;28;20318;-66
2022/05/19 10:52:41;;;;;;;7.18;3.05;;;;;;;29.83;43.87;97166.22;5016672;28;20552;-65
2022/05/19 10:55:12;;;;;;;8.20;3.38;;;;;;;29.78;45.56;97169.72;5015996;28;20033;-64
2022/05/19 10:57:49;;;;;;;6.63;3.67;;;;;;;30.34;44.40;97163.50;5020737;28;20072;-65
2022/05/19 11:00:22;;;;;;;8.02;3.45;;;;;;;30.55;43.98;97161.53;5012441;28;20124;-65
2022/05/19 11:03:17;;;;;;;6.40;3.50;;;;;;;30.49;42.81;97161.44;5021120;28;20842;-65
2022/05/19 11:06:01;;;;;;;6.00;2.97;;;;;;;30.40;42.65;97151.03;5020220;28;20049;-65
2022/05/19 11:08:40;;;;;;;6.47;3.42;;;;;;;30.43;42.50;97152.09;5016049;28;20032;-65
2022/05/19 11:11:08;;;;;;;7.50;3.28;;;;;;;30.39;41.81;97148.69;5013862;28;20049;-64
2022/05/19 11:13:34;;;;;;;9.07;2.70;;;;;;;30.59;42.21;97147.97;5020491;28;20069;-66
2022/05/19 11:16:34;;;;;;;6.65;3.05;;;;;;;30.81;42.64;97148.31;5020230;28;20037;-71
2022/05/19 11:19:15;;;;;;;7.30;3.28;;;;;;;30.87;42.24;97143.50;5026332;28;20041;-66
2022/05/19 11:22:04;;;;;;;9.13;5.80;;;;;;;31.14;41.26;97144.41;5020541;28;20045;-67
2022/05/19 11:24:36;;;;;;;10.73;4.38;;;;;;;30.83;40.52;97145.00;5020075;28;20682;-66
2022/05/19 11:27:20;;;;;;;5.88;3.25;;;;;;;30.98;41.42;97142.13;5006774;28;20049;-66
2022/05/19 11:29:51;;;;;;;8.02;3.22;;;;;;;30.84;41.56;97138.03;5025579;28;20051;-66
2022/05/19 11:32:27;;;;;;;7.45;3.00;;;;;;;30.93;42.59;97135.13;5023333;28;22067;-66
2022/05/19 11:35:08;;;;;;;8.48;3.20;;;;;;;30.90;42.77;97135.28;5018908;28;20091;-69
2022/05/19 11:37:50;;;;;;;7.88;3.58;;;;;;;30.44;44.31;97139.53;4999582;28;20076;-67
2022/05/19 11:40:42;;;;;;;7.53;3.40;;;;;;;29.97;43.44;97135.66;4996489;28;20050;-65
2022/05/19 11:43:32;;;;;;;7.22;3.40;;;;;;;29.62;45.92;97125.00;4996164;28;20414;-65
2022/05/19 11:46:08;;;;;;;14.90;3.72;;;;;;;29.52;46.46;97127.13;5000164;28;20042;-65
2022/05/19 11:57:23;;;;;;;5.35;2.72;;;;;;;29.80;45.78;97127.69;5019229;28;20053;-66
2022/05/19 11:59:52;;;;;;;6.72;3.47;;;;;;;29.97;44.82;97118.72;5035622;28;20037;-65
2022/05/19 12:02:26;;;;;;;9.68;3.42;;;;;;;29.68;45.73;97126.66;5017966;28;20041;-66
2022/05/19 12:05:00;;;;;;;6.05;3.20;;;;;;;29.64;47.17;97120.44;5017998;28;20104;-64
2022/05/19 12:08:10;;;;;;;6.72;3.30;;;;;;;29.80;46.03;97121.25;4993441;28;20123;-65
2022/05/19 12:10:42;;;;;;;8.10;3.40;;;;;;;29.93;44.63;97122.50;4977738;28;20177;-64